Time;durP1;ratioP1;P1;durP2;ratioP2;P2;SDS_P1;SDS_P2;PMS_P1;PMS_P2;Temp;Humidity;BMP_temperature;BMP_pressure;BME280_temperature;BME280_humidity;BME280_pressure;Samples;Min_cycle;Max_cycle;Signal;HPM_P1;HPM_P2
2021/01/07 08:56:27;;;;;;;;;42.60;39.40;;;;;;;;1565607;27;83262;-86
2021/01/07 08:57:12;;;;;;;;;40.60;40.00;;;;;;;;1558798;28;86636;-87
2021/01/07 08:58:01;;;;;;;;;47.00;41.50;;;;;;;;1542336;28;86631;-88
2021/01/07 08:58:46;;;;;;;;;49.60;45.80;;;;;;;;1551090;28;86712;-88
2021/01/07 08:59:31;;;;;;;;;37.00;37.00;;;;;;;;1552673;28;83754;-87
2021/01/07 09:00:17;;;;;;;;;41.50;39.25;;;;;;;;1516428;28;86449;-88
2021/01/07 09:01:02;;;;;;;;;44.00;42.80;;;;;;;;1532298;28;86572;-87
2021/01/07 09:01:48;;;;;;;;;37.00;35.00;;;;;;;;1526500;28;86228;-87
2021/01/07 09:02:33;;;;;;;;;48.00;45.50;;;;;;;;1523749;28;85115;-88
2021/01/07 09:03:18;;;;;;;;;37.25;37.25;;;;;;;;1528242;28;84897;-88
2021/01/07 09:04:04;;;;;;;;;39.00;37.75;;;;;;;;1524638;28;83543;-88
2021/01/07 09:04:49;;;;;;;;;48.75;44.00;;;;;;;;1530556;28;85165;-89
2021/01/07 09:05:34;;;;;;;;;37.00;36.00;;;;;;;;1534210;28;83447;-88
2021/01/07 09:06:21;;;;;;;;;47.00;39.75;;;;;;;;1530582;28;83792;-89
2021/01/07 09:07:15;;;;;;;;;40.00;38.20;;;;;;;;1524480;28;85116;-89
2021/01/07 09:08:07;;;;;;;;;45.00;40.40;;;;;;;;1525811;28;86185;-89
2021/01/07 09:08:52;;;;;;;;;29.80;29.80;;;;;;;;1528082;28;85390;-89
2021/01/07 09:09:38;;;;;;;;;40.75;40.25;;;;;;;;1531002;28;84373;-88
2021/01/07 09:10:24;;;;;;;;;39.40;38.60;;;;;;;;1534358;28;85122;-88
2021/01/07 09:11:10;;;;;;;;;33.25;30.50;;;;;;;;1530419;28;83798;-88
2021/01/07 09:12:15;;;;;;;;;32.50;32.50;;;;;;;;1528388;28;83930;-88
2021/01/07 09:13:19;;;;;;;;;36.40;34.00;;;;;;;;1536565;28;84699;-89
2021/01/07 09:14:05;;;;;;;;;36.20;36.20;;;;;;;;1542435;28;86196;-88
2021/01/07 09:15:11;;;;;;;;;40.80;36.60;;;;;;;;1546538;28;86238;-89
2021/01/07 09:16:10;;;;;;;;;40.20;40.00;;;;;;;;1540234;28;85653;-88
2021/01/07 09:16:58;;;;;;;;;43.20;42.40;;;;;;;;1534365;28;83631;-88
2021/01/07 09:17:44;;;;;;;;;41.40;36.60;;;;;;;;1530089;28;84070;-87
2021/01/07 09:18:29;;;;;;;;;42.20;40.20;;;;;;;;1528284;28;84848;-88
2021/01/07 09:19:19;;;;;;;;;35.75;35.75;;;;;;;;1529732;28;86355;-88
2021/01/07 09:20:05;;;;;;;;;43.60;41.40;;;;;;;;1537035;28;85684;-87
2021/01/07 09:20:50;;;;;;;;;38.50;37.25;;;;;;;;1530784;28;84415;-88
2021/01/07 09:21:37;;;;;;;;;55.25;45.00;;;;;;;;1521920;28;85085;-88
2021/01/07 09:22:24;;;;;;;;;47.60;44.60;;;;;;;;1530520;28;84507;-88
2021/01/07 09:23:10;;;;;;;;;57.60;50.40;;;;;;;;1534256;28;84444;-87
2021/01/07 09:23:56;;;;;;;;;50.25;45.25;;;;;;;;1534787;28;84405;-88
2021/01/07 09:24:41;;;;;;;;;60.80;48.40;;;;;;;;1524460;28;85203;-89
2021/01/07 09:25:26;;;;;;;;;52.50;45.00;;;;;;;;1526337;28;84268;-87
2021/01/07 09:26:25;;;;;;;;;52.75;45.25;;;;;;;;1530136;28;86508;-87
2021/01/07 09:27:11;;;;;;;;;48.60;45.40;;;;;;;;1532052;28;86164;-87
2021/01/07 09:27:57;;;;;;;;;53.60;48.00;;;;;;;;1526259;28;87330;-88
2021/01/07 09:28:42;;;;;;;;;35.25;33.25;;;;;;;;1530323;28;84959;-88
2021/01/07 09:29:27;;;;;;;;;46.50;42.25;;;;;;;;1530058;28;86556;-88
2021/01/07 09:30:13;;;;;;;;;44.50;42.50;;;;;;;;1530375;28;85696;-89
2021/01/07 09:30:58;;;;;;;;;46.75;44.25;;;;;;;;1534247;28;85516;-89
2021/01/07 09:31:43;;;;;;;;;37.50;35.75;;;;;;;;1530230;28;85089;-90
2021/01/07 09:32:28;;;;;;;;;33.75;32.25;;;;;;;;1524284;28;84094;-90
2021/01/07 09:33:13;;;;;;;;;39.00;39.00;;;;;;;;1524335;28;83856;-90
2021/01/07 09:33:59;;;;;;;;;37.50;36.00;;;;;;;;1520382;28;85032;-89
2021/01/07 09:34:44;;;;;;;;;56.50;48.00;;;;;;;;1532212;28;85165;-88
2021/01/07 09:35:29;;;;;;;;;45.25;42.75;;;;;;;;1536198;28;85597;-88
2021/01/07 09:36:14;;;;;;;;;45.50;44.00;;;;;;;;1528278;28;85315;-88
2021/01/07 09:37:00;;;;;;;;;56.00;48.25;;;;;;;;1530347;28;85361;-89
2021/01/07 09:37:45;;;;;;;;;49.25;43.00;;;;;;;;1530361;28;85226;-89
2021/01/07 09:38:31;;;;;;;;;54.75;48.25;;;;;;;;1530190;28;86737;-89
2021/01/07 09:39:16;;;;;;;;;52.50;45.50;;;;;;;;1538343;28;85104;-89
2021/01/07 09:40:02;;;;;;;;;48.50;44.00;;;;;;;;1532478;28;85721;-88
2021/01/07 09:40:49;;;;;;;;;45.75;39.00;;;;;;;;1531814;28;86434;-88
2021/01/07 09:41:34;;;;;;;;;46.40;43.20;;;;;;;;1542600;28;83497;-87
2021/01/07 09:42:20;;;;;;;;;40.75;40.00;;;;;;;;1530237;28;86143;-88
2021/01/07 09:43:06;;;;;;;;;45.40;42.00;;;;;;;;1524292;28;84749;-89
2021/01/07 09:43:51;;;;;;;;;43.00;40.50;;;;;;;;1524376;28;84683;-88
2021/01/07 09:44:36;;;;;;;;;51.25;44.50;;;;;;;;1520235;28;84000;-89
2021/01/07 09:45:22;;;;;;;;;64.00;53.25;;;;;;;;1519862;28;84295;-85
2021/01/07 09:46:07;;;;;;;;;59.00;50.75;;;;;;;;1525979;28;84002;-88
2021/01/07 09:46:53;;;;;;;;;58.75;51.25;;;;;;;;1532092;28;85110;-87
2021/01/07 09:47:38;;;;;;;;;59.75;51.25;;;;;;;;1536032;28;83357;-88
2021/01/07 09:48:23;;;;;;;;;51.75;46.25;;;;;;;;1533981;28;86388;-86
2021/01/07 09:49:09;;;;;;;;;49.50;44.00;;;;;;;;1536078;28;85456;-88
2021/01/07 09:49:56;;;;;;;;;46.50;42.50;;;;;;;;1534998;28;84448;-88
2021/01/07 09:50:41;;;;;;;;;50.00;45.40;;;;;;;;1535764;28;84616;-87
2021/01/07 09:51:27;;;;;;;;;51.25;47.25;;;;;;;;1527951;28;85997;-86
2021/01/07 09:52:12;;;;;;;;;51.00;45.75;;;;;;;;1530429;28;85513;-87
2021/01/07 09:52:57;;;;;;;;;33.25;32.00;;;;;;;;1530184;28;85122;-88
2021/01/07 09:53:42;;;;;;;;;51.00;45.75;;;;;;;;1530080;28;83578;-86
2021/01/07 09:54:27;;;;;;;;;47.25;42.75;;;;;;;;1528110;28;85106;-88
2021/01/07 09:55:13;;;;;;;;;47.75;44.75;;;;;;;;1523920;28;86066;-87
2021/01/07 09:55:58;;;;;;;;;41.50;39.25;;;;;;;;1523654;28;85174;-86
2021/01/07 09:56:43;;;;;;;;;56.50;48.25;;;;;;;;1525851;28;85482;-87
2021/01/07 09:57:28;;;;;;;;;47.75;43.25;;;;;;;;1525975;28;84615;-88
2021/01/07 09:58:14;;;;;;;;;55.00;45.25;;;;;;;;1525848;28;85748;-86
2021/01/07 09:58:59;;;;;;;;;51.75;46.50;;;;;;;;1524152;28;83549;-88
2021/01/07 09:59:44;;;;;;;;;52.00;44.25;;;;;;;;1530061;28;86097;-88
2021/01/07 10:00:29;;;;;;;;;38.25;35.50;;;;;;;;1532722;28;83896;-87
2021/01/07 10:01:17;;;;;;;;;53.25;45.25;;;;;;;;1524035;28;85162;-87
2021/01/07 10:02:03;;;;;;;;;45.60;43.20;;;;;;;;1530193;28;86062;-88
2021/01/07 10:02:50;;;;;;;;;48.20;44.00;;;;;;;;1530825;28;85769;-87
2021/01/07 10:03:35;;;;;;;;;48.20;43.40;;;;;;;;1536376;28;83822;-87
2021/01/07 10:04:21;;;;;;;;;46.25;43.00;;;;;;;;1531946;28;84322;-86
2021/01/07 10:05:06;;;;;;;;;43.75;40.50;;;;;;;;1536318;28;84457;-87
2021/01/07 10:05:51;;;;;;;;;37.75;37.75;;;;;;;;1534458;28;85531;-86
2021/01/07 10:06:37;;;;;;;;;48.50;43.75;;;;;;;;1529968;28;84473;-87
2021/01/07 10:07:22;;;;;;;;;42.00;40.50;;;;;;;;1528120;28;83753;-87
2021/01/07 10:08:07;;;;;;;;;37.50;37.50;;;;;;;;1532168;28;85168;-88
2021/01/07 10:08:52;;;;;;;;;45.75;43.25;;;;;;;;1524023;28;85716;-88
2021/01/07 10:09:38;;;;;;;;;58.00;45.50;;;;;;;;1521816;28;86592;-87
2021/01/07 10:10:23;;;;;;;;;50.00;42.75;;;;;;;;1527375;28;85987;-87
2021/01/07 10:11:08;;;;;;;;;32.75;31.00;;;;;;;;1523974;28;86426;-87
2021/01/07 10:11:54;;;;;;;;;50.75;45.25;;;;;;;;1528378;28;84829;-87
2021/01/07 10:12:39;;;;;;;;;46.50;44.00;;;;;;;;1520141;28;84509;-87
2021/01/07 10:13:24;;;;;;;;;45.00;40.25;;;;;;;;1525898;28;83460;-87
2021/01/07 10:14:09;;;;;;;;;32.00;29.00;;;;;;;;1520083;28;86374;-88
2021/01/07 10:14:55;;;;;;;;;44.25;42.00;;;;;;;;1520111;28;86354;-87
2021/01/07 10:15:40;;;;;;;;;42.50;39.25;;;;;;;;1521736;28;85127;-88
2021/01/07 10:16:25;;;;;;;;;32.50;32.50;;;;;;;;1523768;28;83683;-87
2021/01/07 10:17:10;;;;;;;;;47.00;42.25;;;;;;;;1520118;28;84821;-88
2021/01/07 10:17:56;;;;;;;;;38.00;36.75;;;;;;;;1521957;28;85231;-87
2021/01/07 10:18:41;;;;;;;;;35.75;33.50;;;;;;;;1531910;28;86192;-88
2021/01/07 10:19:28;;;;;;;;;42.75;40.25;;;;;;;;1526016;28;86049;-88
2021/01/07 10:20:13;;;;;;;;;44.00;41.20;;;;;;;;1520185;28;85105;-86
2021/01/07 10:20:59;;;;;;;;;42.00;41.00;;;;;;;;1522454;28;83604;-88
2021/01/07 10:21:47;;;;;;;;;44.25;42.00;;;;;;;;1527836;28;84565;-89
2021/01/07 10:22:33;;;;;;;;;50.40;43.40;;;;;;;;1526397;28;86192;-88
2021/01/07 10:23:18;;;;;;;;;48.25;42.75;;;;;;;;1520455;28;85322;-86
2021/01/07 10:24:05;;;;;;;;;45.75;42.00;;;;;;;;1524635;28;86284;-88
2021/01/07 10:24:52;;;;;;;;;50.80;44.40;;;;;;;;1521440;28;85171;-87
2021/01/07 10:25:37;;;;;;;;;51.00;42.00;;;;;;;;1529670;28;85934;-87
2021/01/07 10:26:22;;;;;;;;;50.75;44.00;;;;;;;;1522413;28;86993;-87
2021/01/07 10:27:09;;;;;;;;;46.00;41.75;;;;;;;;1519687;28;85083;-87
2021/01/07 10:27:55;;;;;;;;;37.60;35.60;;;;;;;;1522345;28;85466;-87
2021/01/07 10:28:40;;;;;;;;;49.00;43.00;;;;;;;;1528269;28;85199;-88
2021/01/07 10:29:26;;;;;;;;;46.00;42.00;;;;;;;;1523767;28;86852;-87
2021/01/07 10:30:12;;;;;;;;;39.00;38.40;;;;;;;;1527697;28;85151;-87
2021/01/07 10:30:57;;;;;;;;;41.75;40.25;;;;;;;;1532146;28;85339;-88
2021/01/07 10:31:42;;;;;;;;;33.00;33.00;;;;;;;;1532088;28;84094;-88
2021/01/07 10:32:28;;;;;;;;;35.50;34.00;;;;;;;;1530099;28;83174;-88
2021/01/07 10:33:13;;;;;;;;;38.25;38.25;;;;;;;;1526021;28;85702;-87
2021/01/07 10:33:58;;;;;;;;;46.00;42.25;;;;;;;;1529972;28;84136;-87
2021/01/07 10:34:47;;;;;;;;;28.50;28.50;;;;;;;;1525803;28;85432;-88
2021/01/07 10:35:32;;;;;;;;;33.40;32.00;;;;;;;;1526313;28;84239;-90
2021/01/07 10:36:17;;;;;;;;;30.75;30.75;;;;;;;;1520524;28;85512;-89
2021/01/07 10:37:03;;;;;;;;;21.00;21.00;;;;;;;;1521935;28;85283;-89
2021/01/07 10:37:49;;;;;;;;;40.00;35.60;;;;;;;;1528059;28;85173;-88
2021/01/07 10:38:34;;;;;;;;;22.00;22.00;;;;;;;;1529728;28;85697;-85
2021/01/07 10:39:20;;;;;;;;;26.50;26.50;;;;;;;;1519806;28;87300;-87
2021/01/07 10:40:06;;;;;;;;;16.40;16.40;;;;;;;;1525746;28;84911;-87
2021/01/07 10:40:51;;;;;;;;;30.50;30.50;;;;;;;;1525851;28;84341;-86
2021/01/07 10:41:37;;;;;;;;;26.00;24.00;;;;;;;;1522858;28;84060;-86
2021/01/07 10:42:23;;;;;;;;;30.00;30.00;;;;;;;;1525979;28;85207;-87
2021/01/07 10:43:08;;;;;;;;;35.00;33.60;;;;;;;;1524491;28;85693;-86
2021/01/07 10:43:54;;;;;;;;;33.50;33.25;;;;;;;;1532248;28;85217;-86
2021/01/07 10:44:40;;;;;;;;;42.50;39.50;;;;;;;;1532458;28;84151;-85
2021/01/07 10:45:25;;;;;;;;;30.80;29.80;;;;;;;;1526687;28;85864;-85
2021/01/07 10:46:10;;;;;;;;;29.50;29.50;;;;;;;;1528907;28;85214;-85
2021/01/07 10:46:59;;;;;;;;;29.00;28.75;;;;;;;;1528295;28;86184;-85
2021/01/07 10:47:47;;;;;;;;;34.20;31.60;;;;;;;;1541502;28;86174;-86
2021/01/07 10:48:35;;;;;;;;;32.80;31.20;;;;;;;;1539475;28;84683;-86
2021/01/07 10:49:21;;;;;;;;;36.20;34.60;;;;;;;;1538992;28;83775;-87
2021/01/07 10:50:06;;;;;;;;;29.25;29.25;;;;;;;;1535673;28;86414;-87
2021/01/07 10:50:51;;;;;;;;;32.50;32.50;;;;;;;;1536854;28;85175;-87
2021/01/07 10:51:51;;;;;;;;;24.50;21.50;;;;;;;;1534091;28;86609;-87
2021/01/07 10:52:39;;;;;;;;;35.40;35.40;;;;;;;;1542436;28;85327;-86
2021/01/07 10:53:40;;;;;;;;;27.20;25.80;;;;;;;;1546544;28;85667;-86
2021/01/07 10:54:28;;;;;;;;;33.60;33.40;;;;;;;;1550157;28;86170;-86
2021/01/07 10:55:19;;;;;;;;;39.20;33.20;;;;;;;;1542660;28;83949;-87
2021/01/07 10:56:04;;;;;;;;;37.80;37.40;;;;;;;;1543367;28;85277;-87
2021/01/07 10:57:01;;;;;;;;;37.75;37.50;;;;;;;;1536361;28;83594;-87
2021/01/07 10:57:51;;;;;;;;;35.40;34.00;;;;;;;;1533376;28;85525;-86
2021/01/07 10:58:47;;;;;;;;;38.20;35.00;;;;;;;;1538325;28;83746;-87
2021/01/07 10:59:33;;;;;;;;;38.80;35.80;;;;;;;;1534149;28;86437;-86
2021/01/07 11:00:37;;;;;;;;;43.80;39.20;;;;;;;;1527892;28;85017;-86
2021/01/07 11:01:41;;;;;;;;;45.20;41.60;;;;;;;;1539457;28;85885;-86
2021/01/07 11:02:32;;;;;;;;;32.80;32.40;;;;;;;;1541975;28;86562;-86
2021/01/07 11:03:18;;;;;;;;;46.80;38.00;;;;;;;;1542322;28;86244;-87
2021/01/07 11:04:03;;;;;;;;;30.50;30.50;;;;;;;;1535908;28;86535;-86
2021/01/07 11:05:07;;;;;;;;;24.75;23.75;;;;;;;;1531831;28;84742;-86
2021/01/07 11:05:52;;;;;;;;;36.20;36.20;;;;;;;;1534760;28;85297;-87
2021/01/07 11:06:39;;;;;;;;;38.00;34.00;;;;;;;;1528242;28;84247;-86
2021/01/07 11:07:33;;;;;;;;;40.40;38.80;;;;;;;;1538312;28;83168;-87
2021/01/07 11:08:20;;;;;;;;;39.20;38.60;;;;;;;;1535991;28;84524;-86
2021/01/07 11:09:15;;;;;;;;;36.40;34.60;;;;;;;;1529888;28;83025;-88
2021/01/07 11:10:04;;;;;;;;;32.20;32.20;;;;;;;;1533402;28;84823;-86
2021/01/07 11:10:50;;;;;;;;;27.40;26.20;;;;;;;;1527595;28;86537;-86
2021/01/07 11:11:36;;;;;;;;;29.40;27.40;;;;;;;;1527048;28;85209;-86
2021/01/07 11:12:21;;;;;;;;;40.25;35.50;;;;;;;;1525898;28;83841;-86
2021/01/07 11:13:07;;;;;;;;;34.00;32.50;;;;;;;;1527750;28;86142;-86
2021/01/07 11:14:01;;;;;;;;;47.75;41.75;;;;;;;;1525765;28;86462;-85
2021/01/07 11:15:04;;;;;;;;;35.00;34.60;;;;;;;;1530092;28;85508;-86
2021/01/07 11:15:53;;;;;;;;;36.00;33.20;;;;;;;;1529701;28;85699;-86
2021/01/07 11:16:42;;;;;;;;;35.80;35.80;;;;;;;;1533264;28;85500;-85
2021/01/07 11:17:28;;;;;;;;;43.80;39.80;;;;;;;;1529360;28;85548;-85
2021/01/07 11:18:19;;;;;;;;;41.00;39.50;;;;;;;;1532075;28;86593;-85
2021/01/07 11:19:07;;;;;;;;;39.00;38.80;;;;;;;;1528654;28;86598;-85
2021/01/07 11:19:52;;;;;;;;;25.80;25.80;;;;;;;;1532338;28;84047;-86
2021/01/07 11:20:39;;;;;;;;;24.50;24.50;;;;;;;;1526707;28;85901;-86
2021/01/07 11:21:24;;;;;;;;;25.00;25.00;;;;;;;;1522295;28;84455;-85
2021/01/07 11:22:14;;;;;;;;;35.25;33.25;;;;;;;;1525516;28;86276;-86
2021/01/07 11:22:59;;;;;;;;;39.00;37.40;;;;;;;;1520088;28;86427;-86
2021/01/07 11:23:44;;;;;;;;;36.00;34.50;;;;;;;;1519881;28;86566;-86
2021/01/07 11:24:29;;;;;;;;;36.00;32.25;;;;;;;;1529234;28;86349;-85
2021/01/07 11:25:15;;;;;;;;;35.50;34.50;;;;;;;;1529116;28;86298;-86
2021/01/07 11:26:00;;;;;;;;;42.75;40.25;;;;;;;;1533189;28;86421;-86
2021/01/07 11:26:46;;;;;;;;;37.50;37.50;;;;;;;;1537397;28;84576;-86
2021/01/07 11:27:31;;;;;;;;;33.20;26.40;;;;;;;;1527229;28;85366;-85
2021/01/07 11:28:17;;;;;;;;;38.50;38.00;;;;;;;;1521597;28;83549;-85
2021/01/07 11:29:02;;;;;;;;;34.00;32.50;;;;;;;;1527487;28;86459;-86
2021/01/07 11:29:47;;;;;;;;;29.50;29.50;;;;;;;;1534812;28;86015;-86
2021/01/07 11:30:33;;;;;;;;;32.50;32.50;;;;;;;;1531521;28;83959;-86
2021/01/07 11:31:18;;;;;;;;;36.50;33.50;;;;;;;;1529528;28;85513;-86
2021/01/07 11:32:04;;;;;;;;;33.25;31.75;;;;;;;;1525538;28;83685;-85
2021/01/07 11:32:49;;;;;;;;;36.50;32.50;;;;;;;;1530036;28;85207;-85
2021/01/07 11:33:34;;;;;;;;;29.25;29.00;;;;;;;;1526456;28;84464;-86
2021/01/07 11:34:19;;;;;;;;;33.50;32.25;;;;;;;;1522875;28;87135;-86
2021/01/07 11:35:06;;;;;;;;;29.50;28.50;;;;;;;;1519647;28;87266;-86
2021/01/07 11:35:51;;;;;;;;;30.00;30.00;;;;;;;;1517727;28;87048;-87
2021/01/07 11:36:38;;;;;;;;;25.50;24.50;;;;;;;;1521840;28;86384;-85
2021/01/07 11:37:24;;;;;;;;;24.60;22.60;;;;;;;;1529566;28;84072;-85
2021/01/07 11:38:10;;;;;;;;;33.80;33.80;;;;;;;;1519842;28;87087;-86
2021/01/07 11:38:59;;;;;;;;;24.80;24.00;;;;;;;;1520749;28;86845;-87
2021/01/07 11:39:47;;;;;;;;;35.60;33.80;;;;;;;;1519955;28;87226;-86
2021/01/07 11:40:45;;;;;;;;;27.40;27.40;;;;;;;;1520474;28;86083;-87
2021/01/07 11:41:32;;;;;;;;;24.40;24.20;;;;;;;;1525430;28;87441;-86
2021/01/07 11:42:36;;;;;;;;;28.20;25.20;;;;;;;;1531429;28;85144;-87
2021/01/07 11:43:21;;;;;;;;;28.20;28.20;;;;;;;;1540551;28;84517;-87
2021/01/07 11:44:22;;;;;;;;;24.00;24.00;;;;;;;;1539722;28;85722;-87
2021/01/07 11:45:07;;;;;;;;;24.40;24.40;;;;;;;;1535541;28;86942;-88
2021/01/07 11:45:55;;;;;;;;;32.25;30.75;;;;;;;;1539705;28;83101;-87
2021/01/07 11:46:41;;;;;;;;;26.20;23.60;;;;;;;;1537896;28;83181;-87
2021/01/07 11:47:27;;;;;;;;;35.20;32.40;;;;;;;;1529522;28;85514;-86
2021/01/07 11:48:12;;;;;;;;;38.50;37.75;;;;;;;;1523547;28;84211;-87
2021/01/07 11:48:58;;;;;;;;;34.25;34.25;;;;;;;;1525259;28;85613;-87
2021/01/07 11:49:45;;;;;;;;;31.75;31.75;;;;;;;;1525448;28;85712;-87
2021/01/07 11:50:36;;;;;;;;;32.00;30.40;;;;;;;;1525692;28;86830;-86
2021/01/07 11:51:21;;;;;;;;;27.00;25.20;;;;;;;;1523573;28;86700;-87
2021/01/07 11:52:09;;;;;;;;;34.00;32.00;;;;;;;;1520163;28;85287;-87
2021/01/07 11:52:55;;;;;;;;;23.60;23.60;;;;;;;;1520333;28;87386;-87
2021/01/07 11:53:40;;;;;;;;;32.50;30.75;;;;;;;;1522172;28;87133;-87
2021/01/07 11:54:25;;;;;;;;;25.00;24.25;;;;;;;;1525222;28;87029;-87
2021/01/07 11:55:13;;;;;;;;;24.75;24.75;;;;;;;;1524151;28;86431;-86
2021/01/07 11:55:59;;;;;;;;;35.00;34.00;;;;;;;;1519366;28;85877;-87
2021/01/07 11:56:45;;;;;;;;;32.00;32.00;;;;;;;;1516160;28;86228;-87
2021/01/07 11:57:32;;;;;;;;;34.80;31.80;;;;;;;;1519749;28;84908;-87
2021/01/07 11:58:20;;;;;;;;;33.00;29.20;;;;;;;;1525780;28;85220;-87
2021/01/07 11:59:05;;;;;;;;;29.80;29.80;;;;;;;;1522258;28;83862;-87
2021/01/07 11:59:50;;;;;;;;;24.75;24.50;;;;;;;;1530830;28;85879;-88
2021/01/07 12:00:36;;;;;;;;;30.00;28.75;;;;;;;;1531425;28;86166;-87
2021/01/07 12:01:21;;;;;;;;;28.00;26.25;;;;;;;;1535632;28;84723;-87
2021/01/07 12:02:09;;;;;;;;;29.75;28.75;;;;;;;;1521535;28;86295;-88
2021/01/07 12:02:55;;;;;;;;;26.00;26.00;;;;;;;;1522308;28;83720;-88
2021/01/07 12:03:41;;;;;;;;;30.50;29.00;;;;;;;;1522368;28;85537;-87
2021/01/07 12:04:26;;;;;;;;;29.50;29.50;;;;;;;;1517457;28;86565;-87
2021/01/07 12:05:11;;;;;;;;;22.00;19.75;;;;;;;;1521311;28;84799;-87
2021/01/07 12:05:57;;;;;;;;;27.50;24.00;;;;;;;;1525222;28;85478;-87
2021/01/07 12:06:45;;;;;;;;;31.60;31.60;;;;;;;;1525481;28;86550;-87
2021/01/07 12:07:36;;;;;;;;;31.00;29.80;;;;;;;;1532016;28;86067;-87
2021/01/07 12:08:38;;;;;;;;;37.20;33.20;;;;;;;;1532600;28;84786;-88
2021/01/07 12:09:29;;;;;;;;;26.20;26.20;;;;;;;;1535838;28;85319;-88
2021/01/07 12:10:14;;;;;;;;;24.40;24.00;;;;;;;;1524426;28;84999;-87
2021/01/07 12:10:59;;;;;;;;;18.75;16.50;;;;;;;;1522524;28;86427;-88
2021/01/07 12:11:56;;;;;;;;;22.50;21.50;;;;;;;;1522033;28;84592;-87
2021/01/07 12:12:49;;;;;;;;;26.60;26.60;;;;;;;;1526632;28;83625;-87
2021/01/07 12:13:36;;;;;;;;;28.80;26.20;;;;;;;;1530927;28;83483;-87
2021/01/07 12:14:25;;;;;;;;;31.60;28.80;;;;;;;;1530907;28;84619;-87
2021/01/07 12:15:13;;;;;;;;;29.80;29.80;;;;;;;;1529904;28;83966;-87
2021/01/07 12:15:58;;;;;;;;;34.20;32.60;;;;;;;;1519900;28;85921;-87
2021/01/07 12:16:45;;;;;;;;;32.75;30.75;;;;;;;;1519830;28;86493;-86
2021/01/07 12:17:30;;;;;;;;;33.40;30.00;;;;;;;;1513560;28;86596;-86
2021/01/07 12:18:16;;;;;;;;;25.00;24.75;;;;;;;;1518451;28;83257;-86
2021/01/07 12:19:02;;;;;;;;;32.50;30.50;;;;;;;;1515268;28;85472;-87
2021/01/07 12:19:48;;;;;;;;;34.20;32.00;;;;;;;;1513310;28;84570;-87
2021/01/07 12:20:36;;;;;;;;;32.25;28.75;;;;;;;;1519565;28;83448;-87
2021/01/07 12:21:21;;;;;;;;;37.60;36.00;;;;;;;;1516191;28;86468;-87
2021/01/07 12:22:07;;;;;;;;;33.75;29.75;;;;;;;;1513601;28;85638;-88
2021/01/07 12:22:52;;;;;;;;;30.50;30.50;;;;;;;;1521213;28;86242;-86
2021/01/07 12:23:38;;;;;;;;;29.50;29.00;;;;;;;;1522926;28;85948;-86
2021/01/07 12:24:23;;;;;;;;;34.50;29.00;;;;;;;;1520244;28;86348;-90
2021/01/07 12:25:08;;;;;;;;;36.00;35.50;;;;;;;;1529307;28;86256;-87
2021/01/07 12:25:54;;;;;;;;;36.00;34.75;;;;;;;;1521244;28;86055;-87
2021/01/07 12:26:39;;;;;;;;;33.50;33.50;;;;;;;;1531107;28;86441;-87
2021/01/07 12:27:24;;;;;;;;;35.00;34.50;;;;;;;;1529135;28;86196;-88
2021/01/07 12:28:14;;;;;;;;;32.25;32.25;;;;;;;;1521301;28;85709;-87
2021/01/07 12:28:59;;;;;;;;;35.20;34.00;;;;;;;;1523780;28;86247;-86
2021/01/07 12:29:45;;;;;;;;;39.25;36.00;;;;;;;;1525566;28;86224;-86
2021/01/07 12:30:30;;;;;;;;;22.50;22.50;;;;;;;;1518670;28;84664;-86
2021/01/07 12:31:15;;;;;;;;;31.25;31.25;;;;;;;;1524993;28;85653;-86
2021/01/07 12:32:02;;;;;;;;;33.50;33.50;;;;;;;;1514905;28;86363;-85
2021/01/07 12:33:05;;;;;;;;;36.40;34.20;;;;;;;;1519168;28;86612;-86
2021/01/07 12:34:09;;;;;;;;;33.60;32.00;;;;;;;;1527784;28;85592;-87
2021/01/07 12:34:59;;;;;;;;;33.40;31.40;;;;;;;;1529318;28;86442;-88
2021/01/07 12:35:52;;;;;;;;;31.80;29.80;;;;;;;;1528251;28;84778;-87
2021/01/07 12:36:45;;;;;;;;;32.60;32.60;;;;;;;;1523432;28;86672;-87
2021/01/07 12:37:36;;;;;;;;;33.20;31.60;;;;;;;;1527066;28;86760;-88
2021/01/07 12:38:40;;;;;;;;;41.60;37.60;;;;;;;;1519007;28;85564;-90
2021/01/07 12:39:37;;;;;;;;;31.00;30.20;;;;;;;;1533450;28;83132;-88
2021/01/07 12:40:22;;;;;;;;;29.60;29.20;;;;;;;;1535453;28;86041;-88
2021/01/07 12:41:10;;;;;;;;;35.75;35.50;;;;;;;;1532084;28;85651;-89
2021/01/07 12:41:55;;;;;;;;;37.80;35.80;;;;;;;;1525392;28;85760;-87
2021/01/07 12:42:41;;;;;;;;;37.50;36.50;;;;;;;;1529426;28;84128;-89
2021/01/07 12:43:28;;;;;;;;;27.00;27.00;;;;;;;;1529775;28;86024;-88
2021/01/07 12:44:14;;;;;;;;;37.80;36.60;;;;;;;;1525531;28;85975;-88
2021/01/07 12:45:01;;;;;;;;;39.50;36.00;;;;;;;;1519512;28;84921;-89
2021/01/07 12:45:46;;;;;;;;;17.80;17.80;;;;;;;;1527911;28;84465;-88
2021/01/07 12:46:33;;;;;;;;;35.25;31.25;;;;;;;;1525676;28;84084;-89
2021/01/07 12:47:18;;;;;;;;;27.20;25.20;;;;;;;;1525552;28;85274;-89
2021/01/07 12:48:03;;;;;;;;;26.75;25.00;;;;;;;;1525490;28;85418;-88
2021/01/07 12:48:49;;;;;;;;;25.50;25.00;;;;;;;;1519307;28;85910;-88
2021/01/07 12:49:35;;;;;;;;;37.25;36.00;;;;;;;;1521430;28;84543;-88
2021/01/07 12:50:21;;;;;;;;;34.50;32.00;;;;;;;;1519397;28;86825;-89
2021/01/07 12:51:06;;;;;;;;;35.00;35.00;;;;;;;;1515538;28;85386;-88
2021/01/07 12:51:52;;;;;;;;;31.50;29.50;;;;;;;;1519305;28;87062;-88
2021/01/07 12:52:37;;;;;;;;;19.25;19.25;;;;;;;;1515132;28;86815;-87
2021/01/07 12:53:22;;;;;;;;;32.25;29.50;;;;;;;;1520937;28;84046;-89
2021/01/07 12:54:08;;;;;;;;;34.00;30.50;;;;;;;;1531078;28;85462;-88
2021/01/07 12:54:54;;;;;;;;;38.00;35.25;;;;;;;;1523150;28;85024;-88
2021/01/07 12:55:39;;;;;;;;;40.60;38.80;;;;;;;;1524993;28;86381;-88
2021/01/07 12:56:27;;;;;;;;;33.50;31.25;;;;;;;;1525447;28;84409;-88
2021/01/07 12:57:22;;;;;;;;;38.40;36.60;;;;;;;;1519426;28;86324;-88
2021/01/07 12:58:13;;;;;;;;;39.00;37.60;;;;;;;;1520627;28;85103;-88
2021/01/07 12:59:00;;;;;;;;;42.40;38.00;;;;;;;;1519323;28;84587;-88
2021/01/07 13:00:05;;;;;;;;;30.80;30.80;;;;;;;;1525847;28;85256;-87
2021/01/07 13:01:00;;;;;;;;;19.20;18.40;;;;;;;;1523131;28;86590;-87
2021/01/07 13:01:53;;;;;;;;;39.20;37.20;;;;;;;;1535050;28;85935;-88
2021/01/07 13:02:41;;;;;;;;;31.40;29.60;;;;;;;;1533457;28;84548;-89
2021/01/07 13:03:30;;;;;;;;;30.20;29.40;;;;;;;;1529289;28;87407;-89
2021/01/07 13:04:18;;;;;;;;;29.60;29.00;;;;;;;;1528365;28;83520;-88
2021/01/07 13:05:08;;;;;;;;;34.80;34.80;;;;;;;;1526456;28;84944;-88
2021/01/07 13:05:57;;;;;;;;;28.20;28.00;;;;;;;;1527178;28;86112;-89
2021/01/07 13:06:47;;;;;;;;;37.00;32.60;;;;;;;;1526730;28;84766;-88
2021/01/07 13:07:32;;;;;;;;;33.40;29.60;;;;;;;;1532749;28;86230;-88
2021/01/07 13:08:18;;;;;;;;;26.75;25.75;;;;;;;;1522338;28;86195;-88
2021/01/07 13:09:03;;;;;;;;;35.50;34.00;;;;;;;;1525437;28;83899;-89
2021/01/07 13:09:48;;;;;;;;;45.00;40.00;;;;;;;;1521947;28;84845;-88
2021/01/07 13:10:37;;;;;;;;;35.00;33.25;;;;;;;;1529612;28;84984;-88
2021/01/07 13:11:22;;;;;;;;;41.80;36.40;;;;;;;;1523254;28;84902;-89
2021/01/07 13:12:07;;;;;;;;;29.25;28.25;;;;;;;;1519530;28;85848;-88
2021/01/07 13:12:52;;;;;;;;;33.00;31.00;;;;;;;;1519181;28;84755;-88
2021/01/07 13:13:44;;;;;;;;;34.25;32.50;;;;;;;;1521078;28;84564;-88
2021/01/07 13:14:32;;;;;;;;;27.40;26.80;;;;;;;;1523273;28;85417;-88
2021/01/07 13:15:17;;;;;;;;;28.80;28.40;;;;;;;;1523275;28;86400;-88
2021/01/07 13:16:02;;;;;;;;;24.75;24.75;;;;;;;;1521573;28;84853;-89
2021/01/07 13:16:47;;;;;;;;;28.75;28.75;;;;;;;;1519152;28;83557;-88
2021/01/07 13:17:32;;;;;;;;;28.75;28.75;;;;;;;;1515358;28;83616;-89
2021/01/07 13:18:18;;;;;;;;;28.50;28.50;;;;;;;;1519186;28;85009;-88
2021/01/07 13:19:03;;;;;;;;;32.75;29.00;;;;;;;;1527085;28;85226;-88
2021/01/07 13:19:48;;;;;;;;;35.75;32.50;;;;;;;;1533335;28;84648;-87
2021/01/07 13:20:34;;;;;;;;;31.25;31.00;;;;;;;;1523226;28;85282;-88
2021/01/07 13:21:19;;;;;;;;;30.75;30.75;;;;;;;;1520959;28;84683;-89
2021/01/07 13:22:04;;;;;;;;;30.00;30.00;;;;;;;;1521155;28;86041;-88
2021/01/07 13:22:49;;;;;;;;;31.25;31.25;;;;;;;;1522852;28;86463;-90
2021/01/07 13:23:35;;;;;;;;;37.25;36.25;;;;;;;;1520939;28;84818;-88
2021/01/07 13:24:20;;;;;;;;;30.75;30.75;;;;;;;;1520788;28;85921;-88
2021/01/07 13:25:06;;;;;;;;;38.50;33.25;;;;;;;;1523142;28;83633;-88
2021/01/07 13:25:57;;;;;;;;;24.60;23.20;;;;;;;;1521878;28;84826;-88
2021/01/07 13:26:43;;;;;;;;;25.20;24.00;;;;;;;;1517131;28;86048;-89
2021/01/07 13:27:28;;;;;;;;;28.00;25.25;;;;;;;;1510995;28;84828;-89
2021/01/07 13:28:13;;;;;;;;;22.25;21.50;;;;;;;;1521772;28;85734;-88
2021/01/07 13:29:00;;;;;;;;;26.00;25.75;;;;;;;;1531103;28;86183;-89
2021/01/07 13:29:46;;;;;;;;;28.00;28.00;;;;;;;;1529219;28;84673;-89
2021/01/07 13:30:31;;;;;;;;;15.00;15.00;;;;;;;;1525532;28;85944;-88
2021/01/07 13:31:17;;;;;;;;;33.00;29.75;;;;;;;;1527415;28;83265;-88